sensor_id;sensor_type;location;lat;lon;timestamp;pressure;altitude;pressure_sealevel;temperature;humidity
20077;BME280;12348;42.710;23.378;2023-04-10T00:03:44;95263.19;;;6.57;100.00
20077;BME280;12348;42.710;23.378;2023-04-10T00:06:10;95264.31;;;6.66;100.00
20077;BME280;12348;42.710;23.378;2023-04-10T00:08:37;95262.75;;;6.70;100.00
20077;BME280;12348;42.710;23.378;2023-04-10T00:11:05;95267.84;;;6.77;100.00
20077;BME280;12348;42.710;23.378;2023-04-10T00:13:32;95266.78;;;6.78;100.00
20077;BME280;12348;42.710;23.378;2023-04-10T00:15:59;95254.25;;;6.84;100.00
20077;BME280;12348;42.710;23.378;2023-04-10T00:18:26;95259.03;;;6.82;100.00
20077;BME280;12348;42.710;23.378;2023-04-10T00:20:53;95260.91;;;6.86;100.00
20077;BME280;12348;42.710;23.378;2023-04-10T00:23:19;95260.13;;;6.86;100.00
20077;BME280;12348;42.710;23.378;2023-04-10T00:25:46;95258.22;;;6.81;100.00
20077;BME280;12348;42.710;23.378;2023-04-10T00:28:14;95251.28;;;6.85;100.00
20077;BME280;12348;42.710;23.378;2023-04-10T00:30:41;95256.63;;;6.80;100.00
20077;BME280;12348;42.710;23.378;2023-04-10T00:33:08;95259.03;;;6.82;100.00
20077;BME280;12348;42.710;23.378;2023-04-10T00:35:35;95257.72;;;6.84;100.00
20077;BME280;12348;42.710;23.378;2023-04-10T00:38:02;95246.50;;;6.87;100.00
20077;BME280;12348;42.710;23.378;2023-04-10T00:40:28;95257.19;;;6.87;100.00
20077;BME280;12348;42.710;23.378;2023-04-10T00:42:57;95247.00;;;6.84;100.00
20077;BME280;12348;42.710;23.378;2023-04-10T00:45:26;95238.72;;;6.86;100.00
20077;BME280;12348;42.710;23.378;2023-04-10T00:47:53;95239.22;;;6.83;100.00
20077;BME280;12348;42.710;23.378;2023-04-10T00:50:21;95246.97;;;6.79;100.00
20077;BME280;12348;42.710;23.378;2023-04-10T00:52:48;95241.88;;;6.72;100.00
20077;BME280;12348;42.710;23.378;2023-04-10T00:55:16;95241.84;;;6.62;100.00
20077;BME280;12348;42.710;23.378;2023-04-10T00:57:44;95233.69;;;6.31;100.00
20077;BME280;12348;42.710;23.378;2023-04-10T01:00:12;95233.53;;;6.06;100.00
20077;BME280;12348;42.710;23.378;2023-04-10T01:02:41;95235.88;;;5.97;100.00
20077;BME280;12348;42.710;23.378;2023-04-10T01:05:09;95224.03;;;5.88;100.00
20077;BME280;12348;42.710;23.378;2023-04-10T01:07:46;95225.59;;;5.79;100.00
20077;BME280;12348;42.710;23.378;2023-04-10T01:10:22;95217.03;;;5.82;100.00
20077;BME280;12348;42.710;23.378;2023-04-10T01:12:57;95221.06;;;5.79;100.00
20077;BME280;12348;42.710;23.378;2023-04-10T01:15:27;95218.41;;;5.84;100.00
20077;BME280;12348;42.710;23.378;2023-04-10T01:18:01;95219.72;;;5.82;100.00
20077;BME280;12348;42.710;23.378;2023-04-10T01:20:32;95217.81;;;5.77;100.00
20077;BME280;12348;42.710;23.378;2023-04-10T01:23:18;95217.84;;;5.82;100.00
20077;BME280;12348;42.710;23.378;2023-04-10T01:25:50;95214.63;;;5.75;100.00
20077;BME280;12348;42.710;23.378;2023-04-10T01:28:47;95223.16;;;5.77;100.00
20077;BME280;12348;42.710;23.378;2023-04-10T01:31:18;95219.13;;;5.75;100.00
20077;BME280;12348;42.710;23.378;2023-04-10T01:33:48;95216.50;;;5.80;100.00
20077;BME280;12348;42.710;23.378;2023-04-10T01:36:21;95217.59;;;5.84;100.00
20077;BME280;12348;42.710;23.378;2023-04-10T01:38:52;95220.06;;;5.91;100.00
20077;BME280;12348;42.710;23.378;2023-04-10T01:41:21;95211.75;;;5.87;100.00
20077;BME280;12348;42.710;23.378;2023-04-10T01:43:50;95219.25;;;5.90;100.00
20077;BME280;12348;42.710;23.378;2023-04-10T01:46:20;95220.00;;;5.86;100.00
20077;BME280;12348;42.710;23.378;2023-04-10T01:48:48;95223.44;;;5.76;100.00
20077;BME280;12348;42.710;23.378;2023-04-10T01:51:16;95220.97;;;5.69;100.00
20077;BME280;12348;42.710;23.378;2023-04-10T01:53:43;95227.38;;;5.68;100.00
20077;BME280;12348;42.710;23.378;2023-04-10T01:56:11;95228.13;;;5.64;100.00
20077;BME280;12348;42.710;23.378;2023-04-10T01:58:38;95230.25;;;5.62;100.00
20077;BME280;12348;42.710;23.378;2023-04-10T02:01:07;95221.38;;;5.56;100.00
20077;BME280;12348;42.710;23.378;2023-04-10T02:03:34;95217.97;;;5.61;100.00
20077;BME280;12348;42.710;23.378;2023-04-10T02:06:09;95213.69;;;5.59;100.00
20077;BME280;12348;42.710;23.378;2023-04-10T02:08:39;95212.16;;;5.69;100.00
20077;BME280;12348;42.710;23.378;2023-04-10T02:11:12;95206.22;;;5.62;100.00
20077;BME280;12348;42.710;23.378;2023-04-10T02:13:41;95198.00;;;5.68;100.00
20077;BME280;12348;42.710;23.378;2023-04-10T02:16:12;95201.50;;;5.74;100.00
20077;BME280;12348;42.710;23.378;2023-04-10T02:18:42;95204.69;;;5.71;100.00
20077;BME280;12348;42.710;23.378;2023-04-10T02:21:10;95198.31;;;5.77;100.00
20077;BME280;12348;42.710;23.378;2023-04-10T02:23:37;95197.75;;;5.75;100.00
20077;BME280;12348;42.710;23.378;2023-04-10T02:26:05;95193.25;;;5.75;100.00
20077;BME280;12348;42.710;23.378;2023-04-10T02:28:33;95193.47;;;5.74;100.00
20077;BME280;12348;42.710;23.378;2023-04-10T02:31:00;95192.13;;;5.71;100.00
20077;BME280;12348;42.710;23.378;2023-04-10T02:33:28;95188.69;;;5.76;100.00
20077;BME280;12348;42.710;23.378;2023-04-10T02:35:55;95186.81;;;5.76;100.00
20077;BME280;12348;42.710;23.378;2023-04-10T02:38:22;95188.69;;;5.76;100.00
20077;BME280;12348;42.710;23.378;2023-04-10T02:40:48;95181.13;;;5.63;100.00
20077;BME280;12348;42.710;23.378;2023-04-10T02:43:15;95182.44;;;5.60;100.00
20077;BME280;12348;42.710;23.378;2023-04-10T02:45:42;95169.34;;;5.58;100.00
20077;BME280;12348;42.710;23.378;2023-04-10T02:48:09;95173.63;;;5.59;100.00
20077;BME280;12348;42.710;23.378;2023-04-10T02:50:38;95167.97;;;5.56;100.00
20077;BME280;12348;42.710;23.378;2023-04-10T02:53:10;95169.44;;;5.37;100.00
20077;BME280;12348;42.710;23.378;2023-04-10T02:55:37;95173.47;;;5.39;100.00
20077;BME280;12348;42.710;23.378;2023-04-10T02:58:04;95171.78;;;5.28;100.00
20077;BME280;12348;42.710;23.378;2023-04-10T03:00:31;95170.22;;;5.32;100.00
20077;BME280;12348;42.710;23.378;2023-04-10T03:02:58;95169.66;;;5.30;100.00
20077;BME280;12348;42.710;23.378;2023-04-10T03:05:24;95163.97;;;5.16;100.00
20077;BME280;12348;42.710;23.378;2023-04-10T03:07:52;95162.63;;;5.19;100.00
20077;BME280;12348;42.710;23.378;2023-04-10T03:10:19;95165.75;;;5.10;100.00
20077;BME280;12348;42.710;23.378;2023-04-10T03:12:46;95179.09;;;5.10;100.00
20077;BME280;12348;42.710;23.378;2023-04-10T03:15:13;95174.88;;;5.15;100.00
20077;BME280;12348;42.710;23.378;2023-04-10T03:17:40;95176.63;;;5.04;100.00
20077;BME280;12348;42.710;23.378;2023-04-10T03:20:08;95175.50;;;4.95;100.00
20077;BME280;12348;42.710;23.378;2023-04-10T03:22:35;95178.34;;;4.83;100.00
20077;BME280;12348;42.710;23.378;2023-04-10T03:25:04;95180.94;;;4.78;100.00
20077;BME280;12348;42.710;23.378;2023-04-10T03:27:31;95184.72;;;4.82;100.00
20077;BME280;12348;42.710;23.378;2023-04-10T03:29:59;95177.72;;;4.76;100.00
20077;BME280;12348;42.710;23.378;2023-04-10T03:32:27;95180.88;;;4.73;100.00
20077;BME280;12348;42.710;23.378;2023-04-10T03:34:56;95184.00;;;4.65;100.00
20077;BME280;12348;42.710;23.378;2023-04-10T03:37:22;95183.13;;;4.59;100.00
20077;BME280;12348;42.710;23.378;2023-04-10T03:39:49;95187.13;;;4.56;100.00
20077;BME280;12348;42.710;23.378;2023-04-10T03:42:18;95188.16;;;4.55;100.00
20077;BME280;12348;42.710;23.378;2023-04-10T03:44:44;95192.19;;;4.58;100.00
20077;BME280;12348;42.710;23.378;2023-04-10T03:47:11;95182.03;;;4.55;100.00
20077;BME280;12348;42.710;23.378;2023-04-10T03:49:38;95194.25;;;4.51;100.00
20077;BME280;12348;42.710;23.378;2023-04-10T03:52:05;95186.44;;;4.44;100.00
20077;BME280;12348;42.710;23.378;2023-04-10T03:54:32;95193.09;;;4.42;100.00
20077;BME280;12348;42.710;23.378;2023-04-10T03:56:59;95194.66;;;4.37;100.00
20077;BME280;12348;42.710;23.378;2023-04-10T03:59:27;95190.66;;;4.40;100.00
20077;BME280;12348;42.710;23.378;2023-04-10T04:01:54;95193.94;;;4.47;100.00
20077;BME280;12348;42.710;23.378;2023-04-10T04:04:21;95190.28;;;4.53;100.00
20077;BME280;12348;42.710;23.378;2023-04-10T04:06:48;95193.38;;;4.67;100.00
20077;BME280;12348;42.710;23.378;2023-04-10T04:09:15;95201.78;;;4.81;100.00
20077;BME280;12348;42.710;23.378;2023-04-10T04:11:43;95198.41;;;4.91;100.00
20077;BME280;12348;42.710;23.378;2023-04-10T04:14:09;95200.97;;;5.07;100.00
20077;BME280;12348;42.710;23.378;2023-04-10T04:16:37;95204.03;;;5.53;100.00
20077;BME280;12348;42.710;23.378;2023-04-10T04:19:04;95192.00;;;6.36;100.00
20077;BME280;12348;42.710;23.378;2023-04-10T04:21:31;95191.09;;;7.13;100.00
20077;BME280;12348;42.710;23.378;2023-04-10T04:23:58;95195.69;;;7.33;100.00
20077;BME280;12348;42.710;23.378;2023-04-10T04:26:24;95191.41;;;7.27;100.00
20077;BME280;12348;42.710;23.378;2023-04-10T04:28:51;95191.91;;;7.03;100.00
20077;BME280;12348;42.710;23.378;2023-04-10T04:31:18;95196.72;;;7.12;100.00
20077;BME280;12348;42.710;23.378;2023-04-10T04:33:46;95191.66;;;7.71;100.00
20077;BME280;12348;42.710;23.378;2023-04-10T04:36:13;95192.75;;;8.71;100.00
20077;BME280;12348;42.710;23.378;2023-04-10T04:38:40;95191.44;;;9.81;100.00
20077;BME280;12348;42.710;23.378;2023-04-10T04:41:06;95195.06;;;10.54;100.00
20077;BME280;12348;42.710;23.378;2023-04-10T04:43:34;95190.69;;;11.71;100.00
20077;BME280;12348;42.710;23.378;2023-04-10T04:46:00;95186.56;;;12.67;100.00
20077;BME280;12348;42.710;23.378;2023-04-10T04:48:27;95198.72;;;13.05;100.00
20077;BME280;12348;42.710;23.378;2023-04-10T04:50:55;95197.41;;;13.17;100.00
20077;BME280;12348;42.710;23.378;2023-04-10T04:53:22;95195.88;;;12.74;100.00
20077;BME280;12348;42.710;23.378;2023-04-10T04:55:48;95202.50;;;13.32;100.00
20077;BME280;12348;42.710;23.378;2023-04-10T04:58:15;95204.41;;;13.18;100.00
20077;BME280;12348;42.710;23.378;2023-04-10T05:00:42;95209.25;;;13.79;100.00
20077;BME280;12348;42.710;23.378;2023-04-10T05:03:08;95207.56;;;14.15;100.00
20077;BME280;12348;42.710;23.378;2023-04-10T05:05:35;95212.50;;;13.68;100.00
20077;BME280;12348;42.710;23.378;2023-04-10T05:08:03;95213.50;;;13.72;94.17
20077;BME280;12348;42.710;23.378;2023-04-10T05:10:30;95213.94;;;13.88;96.60
20077;BME280;12348;42.710;23.378;2023-04-10T05:12:57;95207.56;;;14.77;92.57
20077;BME280;12348;42.710;23.378;2023-04-10T05:15:23;95212.16;;;15.34;86.90
20077;BME280;12348;42.710;23.378;2023-04-10T05:17:50;95204.97;;;15.38;84.13
20077;BME280;12348;42.710;23.378;2023-04-10T05:20:18;95211.66;;;15.23;87.70
20077;BME280;12348;42.710;23.378;2023-04-10T05:22:46;95209.41;;;14.59;80.29
20077;BME280;12348;42.710;23.378;2023-04-10T05:25:14;95207.53;;;15.51;79.05
20077;BME280;12348;42.710;23.378;2023-04-10T05:27:41;95207.25;;;15.88;82.20
20077;BME280;12348;42.710;23.378;2023-04-10T05:30:08;95200.38;;;15.99;76.78
20077;BME280;12348;42.710;23.378;2023-04-10T05:32:36;95208.69;;;15.77;77.32
20077;BME280;12348;42.710;23.378;2023-04-10T05:35:03;95211.94;;;16.34;83.07
20077;BME280;12348;42.710;23.378;2023-04-10T05:37:30;95208.94;;;16.83;74.00
20077;BME280;12348;42.710;23.378;2023-04-10T05:39:57;95208.44;;;17.19;71.76
20077;BME280;12348;42.710;23.378;2023-04-10T05:42:26;95206.56;;;16.81;71.41
20077;BME280;12348;42.710;23.378;2023-04-10T05:44:53;95214.88;;;15.51;73.47
20077;BME280;12348;42.710;23.378;2023-04-10T05:47:19;95206.09;;;15.37;73.91
20077;BME280;12348;42.710;23.378;2023-04-10T05:49:46;95212.84;;;15.65;73.02
20077;BME280;12348;42.710;23.378;2023-04-10T05:52:13;95213.13;;;16.07;75.72
20077;BME280;12348;42.710;23.378;2023-04-10T05:54:40;95223.38;;;16.10;69.64
20077;BME280;12348;42.710;23.378;2023-04-10T05:57:07;95212.50;;;17.04;68.00
20077;BME280;12348;42.710;23.378;2023-04-10T05:59:35;95212.94;;;16.77;70.95
20077;BME280;12348;42.710;23.378;2023-04-10T06:02:02;95211.84;;;17.37;66.73
20077;BME280;12348;42.710;23.378;2023-04-10T06:04:29;95209.47;;;18.31;64.02
20077;BME280;12348;42.710;23.378;2023-04-10T06:06:56;95219.50;;;18.52;61.29
20077;BME280;12348;42.710;23.378;2023-04-10T06:09:24;95218.88;;;17.08;59.69
20077;BME280;12348;42.710;23.378;2023-04-10T06:11:51;95214.63;;;14.87;68.53
20077;BME280;12348;42.710;23.378;2023-04-10T06:14:19;95218.44;;;13.33;77.65
20077;BME280;12348;42.710;23.378;2023-04-10T06:16:47;95205.25;;;14.53;80.59
20077;BME280;12348;42.710;23.378;2023-04-10T06:19:14;95211.44;;;14.00;76.53
20077;BME280;12348;42.710;23.378;2023-04-10T06:21:41;95204.72;;;13.16;82.16
20077;BME280;12348;42.710;23.378;2023-04-10T06:24:08;95214.41;;;12.07;89.76
20077;BME280;12348;42.710;23.378;2023-04-10T06:26:36;95208.06;;;11.65;93.16
20077;BME280;12348;42.710;23.378;2023-04-10T06:29:02;95209.75;;;11.42;95.47
20077;BME280;12348;42.710;23.378;2023-04-10T06:31:32;95207.44;;;11.16;96.50
20077;BME280;12348;42.710;23.378;2023-04-10T06:34:00;95210.56;;;11.24;98.77
20077;BME280;12348;42.710;23.378;2023-04-10T06:36:27;95211.09;;;11.26;97.70
20077;BME280;12348;42.710;23.378;2023-04-10T06:38:53;95216.34;;;11.36;99.08
20077;BME280;12348;42.710;23.378;2023-04-10T06:41:20;95214.66;;;11.21;98.51
20077;BME280;12348;42.710;23.378;2023-04-10T06:43:47;95216.91;;;11.14;94.61
20077;BME280;12348;42.710;23.378;2023-04-10T06:46:14;95212.97;;;11.25;98.60
20077;BME280;12348;42.710;23.378;2023-04-10T06:48:42;95220.47;;;10.66;96.48
20077;BME280;12348;42.710;23.378;2023-04-10T06:51:10;95230.50;;;10.37;97.84
20077;BME280;12348;42.710;23.378;2023-04-10T06:53:37;95231.69;;;10.26;98.83
20077;BME280;12348;42.710;23.378;2023-04-10T06:56:04;95232.47;;;10.26;100.00
20077;BME280;12348;42.710;23.378;2023-04-10T06:58:31;95223.22;;;10.37;99.74
20077;BME280;12348;42.710;23.378;2023-04-10T07:00:58;95234.22;;;10.41;100.00
20077;BME280;12348;42.710;23.378;2023-04-10T07:03:28;95226.47;;;10.05;100.00
20077;BME280;12348;42.710;23.378;2023-04-10T07:05:55;95236.50;;;10.53;100.00
20077;BME280;12348;42.710;23.378;2023-04-10T07:08:24;95229.28;;;10.48;98.30
20077;BME280;12348;42.710;23.378;2023-04-10T07:10:50;95236.06;;;10.46;99.05
20077;BME280;12348;42.710;23.378;2023-04-10T07:13:17;95233.13;;;9.84;100.00
20077;BME280;12348;42.710;23.378;2023-04-10T07:15:44;95236.28;;;10.20;100.00
20077;BME280;12348;42.710;23.378;2023-04-10T07:18:11;95245.91;;;9.63;98.96
20077;BME280;12348;42.710;23.378;2023-04-10T07:20:38;95238.78;;;9.82;98.08
20077;BME280;12348;42.710;23.378;2023-04-10T07:23:04;95238.75;;;10.16;98.11
20077;BME280;12348;42.710;23.378;2023-04-10T07:25:33;95237.53;;;10.33;94.89
20077;BME280;12348;42.710;23.378;2023-04-10T07:27:59;95245.44;;;10.48;94.55
20077;BME280;12348;42.710;23.378;2023-04-10T07:30:26;95233.09;;;10.90;95.43
20077;BME280;12348;42.710;23.378;2023-04-10T07:32:53;95238.53;;;11.84;92.41
20077;BME280;12348;42.710;23.378;2023-04-10T07:35:20;95231.28;;;13.87;88.25
20077;BME280;12348;42.710;23.378;2023-04-10T07:37:46;95231.28;;;13.87;72.27
20077;BME280;12348;42.710;23.378;2023-04-10T07:40:16;95228.56;;;13.87;73.66
20077;BME280;12348;42.710;23.378;2023-04-10T07:42:45;95232.13;;;14.18;74.90
20077;BME280;12348;42.710;23.378;2023-04-10T07:45:12;95233.16;;;15.02;73.22
20077;BME280;12348;42.710;23.378;2023-04-10T07:47:39;95231.63;;;15.44;72.19
20077;BME280;12348;42.710;23.378;2023-04-10T07:50:07;95239.28;;;15.16;67.08
20077;BME280;12348;42.710;23.378;2023-04-10T07:52:34;95240.78;;;14.51;68.26
20077;BME280;12348;42.710;23.378;2023-04-10T07:55:01;95236.66;;;13.42;72.81
20077;BME280;12348;42.710;23.378;2023-04-10T07:57:28;95232.72;;;13.70;74.04
20077;BME280;12348;42.710;23.378;2023-04-10T07:59:58;95230.19;;;12.88;77.67
20077;BME280;12348;42.710;23.378;2023-04-10T08:02:25;95226.47;;;12.83;79.10
20077;BME280;12348;42.710;23.378;2023-04-10T08:04:51;95228.69;;;12.81;81.64
20077;BME280;12348;42.710;23.378;2023-04-10T08:07:19;95223.69;;;12.61;81.23
20077;BME280;12348;42.710;23.378;2023-04-10T08:09:46;95225.84;;;12.31;81.60
20077;BME280;12348;42.710;23.378;2023-04-10T08:12:13;95228.50;;;12.04;84.97
20077;BME280;12348;42.710;23.378;2023-04-10T08:14:40;95226.56;;;11.91;88.36
20077;BME280;12348;42.710;23.378;2023-04-10T08:17:09;95222.84;;;11.86;88.19
20077;BME280;12348;42.710;23.378;2023-04-10T08:19:39;95222.84;;;11.68;83.99
20077;BME280;12348;42.710;23.378;2023-04-10T08:22:06;95223.97;;;11.48;80.22
20077;BME280;12348;42.710;23.378;2023-04-10T08:24:33;95223.28;;;11.75;79.95
20077;BME280;12348;42.710;23.378;2023-04-10T08:27:00;95223.19;;;11.80;82.64
20077;BME280;12348;42.710;23.378;2023-04-10T08:29:27;95227.13;;;12.06;81.19
20077;BME280;12348;42.710;23.378;2023-04-10T08:31:53;95224.59;;;11.77;82.78
20077;BME280;12348;42.710;23.378;2023-04-10T08:34:22;95225.66;;;11.44;83.08
20077;BME280;12348;42.710;23.378;2023-04-10T08:36:49;95222.59;;;11.50;84.43
20077;BME280;12348;42.710;23.378;2023-04-10T08:39:16;95225.09;;;11.28;84.51
20077;BME280;12348;42.710;23.378;2023-04-10T08:41:42;95223.19;;;10.85;86.80
20077;BME280;12348;42.710;23.378;2023-04-10T08:44:09;95224.03;;;11.05;85.83
20077;BME280;12348;42.710;23.378;2023-04-10T08:46:42;95221.63;;;11.22;85.85
20077;BME280;12348;42.710;23.378;2023-04-10T08:49:13;95216.38;;;11.50;83.08
20077;BME280;12348;42.710;23.378;2023-04-10T08:51:48;95219.69;;;11.47;80.55
20077;BME280;12348;42.710;23.378;2023-04-10T08:54:18;95217.09;;;11.74;79.67
20077;BME280;12348;42.710;23.378;2023-04-10T08:56:49;95212.38;;;11.66;78.13
20077;BME280;12348;42.710;23.378;2023-04-10T08:59:16;95212.59;;;11.51;76.91
20077;BME280;12348;42.710;23.378;2023-04-10T09:01:44;95222.06;;;11.86;77.27
20077;BME280;12348;42.710;23.378;2023-04-10T09:04:11;95218.41;;;11.96;76.22
20077;BME280;12348;42.710;23.378;2023-04-10T09:06:38;95204.38;;;12.81;72.89
20077;BME280;12348;42.710;23.378;2023-04-10T09:09:06;95203.66;;;12.76;72.67
20077;BME280;12348;42.710;23.378;2023-04-10T09:11:55;95201.22;;;11.54;73.64
20077;BME280;12348;42.710;23.378;2023-04-10T09:14:26;95205.31;;;10.95;75.49
20077;BME280;12348;42.710;23.378;2023-04-10T09:17:04;95207.59;;;10.82;76.24
20077;BME280;12348;42.710;23.378;2023-04-10T09:19:35;95187.53;;;10.93;77.16
20077;BME280;12348;42.710;23.378;2023-04-10T09:22:02;95193.81;;;11.08;78.62
20077;BME280;12348;42.710;23.378;2023-04-10T09:24:34;95199.72;;;11.10;77.69
20077;BME280;12348;42.710;23.378;2023-04-10T09:27:02;95203.25;;;11.05;78.27
20077;BME280;12348;42.710;23.378;2023-04-10T09:29:38;95197.91;;;10.62;75.97
20077;BME280;12348;42.710;23.378;2023-04-10T09:32:06;95210.00;;;10.65;75.07
20077;BME280;12348;42.710;23.378;2023-04-10T09:34:33;95202.72;;;10.65;74.65
20077;BME280;12348;42.710;23.378;2023-04-10T09:37:00;95211.53;;;10.71;75.12
20077;BME280;12348;42.710;23.378;2023-04-10T09:39:33;95193.66;;;10.56;76.46
20077;BME280;12348;42.710;23.378;2023-04-10T09:42:01;95169.41;;;10.80;75.42
20077;BME280;12348;42.710;23.378;2023-04-10T09:44:29;95200.63;;;10.81;75.30
20077;BME280;12348;42.710;23.378;2023-04-10T09:46:56;95177.63;;;11.08;75.34
20077;BME280;12348;42.710;23.378;2023-04-10T09:49:23;95179.31;;;11.04;75.89
20077;BME280;12348;42.710;23.378;2023-04-10T09:51:50;95190.31;;;11.07;72.96
20077;BME280;12348;42.710;23.378;2023-04-10T09:54:17;95195.25;;;10.81;72.85
20077;BME280;12348;42.710;23.378;2023-04-10T09:56:46;95190.63;;;11.57;73.23
20077;BME280;12348;42.710;23.378;2023-04-10T09:59:15;95187.44;;;12.62;69.45
20077;BME280;12348;42.710;23.378;2023-04-10T10:01:43;95187.75;;;12.47;68.08
20077;BME280;12348;42.710;23.378;2023-04-10T10:04:10;95184.28;;;13.10;64.43
20077;BME280;12348;42.710;23.378;2023-04-10T10:06:40;95181.59;;;13.24;64.11
20077;BME280;12348;42.710;23.378;2023-04-10T10:09:07;95165.44;;;12.82;67.64
20077;BME280;12348;42.710;23.378;2023-04-10T10:11:34;95170.56;;;12.29;68.37
20077;BME280;12348;42.710;23.378;2023-04-10T10:14:08;95162.66;;;12.32;68.23
20077;BME280;12348;42.710;23.378;2023-04-10T10:16:41;95164.03;;;12.16;68.80
20077;BME280;12348;42.710;23.378;2023-04-10T10:19:12;95171.44;;;11.78;70.48
20077;BME280;12348;42.710;23.378;2023-04-10T10:21:43;95164.72;;;11.24;72.26
20077;BME280;12348;42.710;23.378;2023-04-10T10:24:10;95164.50;;;11.58;72.83
20077;BME280;12348;42.710;23.378;2023-04-10T10:26:39;95158.66;;;12.16;71.49
20077;BME280;12348;42.710;23.378;2023-04-10T10:29:08;95151.75;;;12.65;70.85
20077;BME280;12348;42.710;23.378;2023-04-10T10:31:36;95151.00;;;13.01;69.65
20077;BME280;12348;42.710;23.378;2023-04-10T10:34:04;95144.25;;;13.12;68.88
20077;BME280;12348;42.710;23.378;2023-04-10T10:36:33;95135.81;;;13.14;68.48
20077;BME280;12348;42.710;23.378;2023-04-10T10:39:20;95142.19;;;12.95;67.24
20077;BME280;12348;42.710;23.378;2023-04-10T10:41:55;95144.00;;;13.00;68.32
20077;BME280;12348;42.710;23.378;2023-04-10T10:44:34;95138.97;;;13.07;68.59
20077;BME280;12348;42.710;23.378;2023-04-10T10:47:06;95139.88;;;13.39;67.52
20077;BME280;12348;42.710;23.378;2023-04-10T10:49:52;95136.38;;;13.38;65.08
20077;BME280;12348;42.710;23.378;2023-04-10T10:52:38;95138.66;;;13.45;63.94
20077;BME280;12348;42.710;23.378;2023-04-10T10:55:31;95134.09;;;13.54;65.01
20077;BME280;12348;42.710;23.378;2023-04-10T10:58:01;95127.47;;;14.22;63.03
20077;BME280;12348;42.710;23.378;2023-04-10T11:01:05;95124.53;;;15.24;59.94
20077;BME280;12348;42.710;23.378;2023-04-10T11:03:33;95105.06;;;16.21;53.76
20077;BME280;12348;42.710;23.378;2023-04-10T11:06:01;95103.75;;;16.28;53.15
20077;BME280;12348;42.710;23.378;2023-04-10T11:08:49;95088.53;;;16.35;52.09
20077;BME280;12348;42.710;23.378;2023-04-10T11:11:18;95093.44;;;16.51;54.93
20077;BME280;12348;42.710;23.378;2023-04-10T11:14:13;95099.78;;;15.69;57.03
20077;BME280;12348;42.710;23.378;2023-04-10T11:16:45;95097.38;;;14.81;60.12
20077;BME280;12348;42.710;23.378;2023-04-10T11:19:12;95094.16;;;14.53;63.13
20077;BME280;12348;42.710;23.378;2023-04-10T11:22:00;95104.66;;;14.54;63.43
20077;BME280;12348;42.710;23.378;2023-04-10T11:24:28;95099.66;;;13.99;62.57
20077;BME280;12348;42.710;23.378;2023-04-10T11:26:55;95095.25;;;14.12;62.12
20077;BME280;12348;42.710;23.378;2023-04-10T11:29:32;95100.19;;;14.10;65.22
20077;BME280;12348;42.710;23.378;2023-04-10T11:32:02;95098.09;;;14.47;64.34
20077;BME280;12348;42.710;23.378;2023-04-10T11:34:30;95106.63;;;14.80;61.27
20077;BME280;12348;42.710;23.378;2023-04-10T11:36:57;95089.56;;;14.97;61.86
20077;BME280;12348;42.710;23.378;2023-04-10T11:39:25;95083.81;;;14.81;59.43
20077;BME280;12348;42.710;23.378;2023-04-10T11:41:52;95100.28;;;14.45;62.23
20077;BME280;12348;42.710;23.378;2023-04-10T11:44:27;95093.97;;;14.10;62.13
20077;BME280;12348;42.710;23.378;2023-04-10T11:46:54;95088.84;;;13.68;64.99
20077;BME280;12348;42.710;23.378;2023-04-10T11:49:26;95097.72;;;13.38;66.00
20077;BME280;12348;42.710;23.378;2023-04-10T11:51:53;95100.59;;;12.82;68.84
20077;BME280;12348;42.710;23.378;2023-04-10T11:54:21;95090.09;;;12.81;69.80
20077;BME280;12348;42.710;23.378;2023-04-10T11:56:56;95089.47;;;12.34;71.74
20077;BME280;12348;42.710;23.378;2023-04-10T11:59:23;95088.66;;;12.06;74.92
20077;BME280;12348;42.710;23.378;2023-04-10T12:01:52;95090.63;;;11.86;76.71
20077;BME280;12348;42.710;23.378;2023-04-10T12:04:22;95093.34;;;11.86;79.18
20077;BME280;12348;42.710;23.378;2023-04-10T12:06:51;95092.00;;;11.70;81.13
20077;BME280;12348;42.710;23.378;2023-04-10T12:09:19;95098.84;;;11.49;86.47
20077;BME280;12348;42.710;23.378;2023-04-10T12:11:50;95083.25;;;10.13;100.00
20077;BME280;12348;42.710;23.378;2023-04-10T12:14:17;95124.66;;;8.96;100.00
20077;BME280;12348;42.710;23.378;2023-04-10T12:16:45;95120.81;;;8.08;100.00
20077;BME280;12348;42.710;23.378;2023-04-10T12:19:13;95114.44;;;7.84;100.00
20077;BME280;12348;42.710;23.378;2023-04-10T12:21:43;95117.97;;;7.69;100.00
20077;BME280;12348;42.710;23.378;2023-04-10T12:24:10;95127.06;;;7.68;100.00
20077;BME280;12348;42.710;23.378;2023-04-10T12:26:37;95113.69;;;7.58;100.00
20077;BME280;12348;42.710;23.378;2023-04-10T12:29:04;95119.63;;;7.34;100.00
20077;BME280;12348;42.710;23.378;2023-04-10T12:31:33;95140.25;;;7.18;100.00
20077;BME280;12348;42.710;23.378;2023-04-10T12:34:01;95137.00;;;6.86;100.00
20077;BME280;12348;42.710;23.378;2023-04-10T12:36:31;95120.44;;;6.84;100.00
20077;BME280;12348;42.710;23.378;2023-04-10T12:39:02;95116.94;;;7.03;100.00
20077;BME280;12348;42.710;23.378;2023-04-10T12:41:30;95111.31;;;7.20;100.00
20077;BME280;12348;42.710;23.378;2023-04-10T12:44:08;95105.13;;;7.50;100.00
20077;BME280;12348;42.710;23.378;2023-04-10T12:46:35;95100.78;;;7.85;100.00
20077;BME280;12348;42.710;23.378;2023-04-10T12:49:08;95103.63;;;8.09;100.00
20077;BME280;12348;42.710;23.378;2023-04-10T12:51:46;95090.41;;;8.38;100.00
20077;BME280;12348;42.710;23.378;2023-04-10T12:54:31;95083.22;;;8.73;100.00
20077;BME280;12348;42.710;23.378;2023-04-10T12:56:58;95087.00;;;9.06;100.00
20077;BME280;12348;42.710;23.378;2023-04-10T12:59:26;95073.69;;;9.25;100.00
20077;BME280;12348;42.710;23.378;2023-04-10T13:01:53;95077.69;;;9.57;100.00